createdAt,value
2022-11-29T00:00:09.813Z,12.58
2022-11-29T00:03:14.903Z,11.53
2022-11-29T00:06:23.737Z,12.85
2022-11-29T00:09:28.882Z,12.90
2022-11-29T00:12:34.444Z,12.28
2022-11-29T00:15:41.003Z,11.48
2022-11-29T00:18:47.193Z,11.48
2022-11-29T00:21:53.848Z,12.43
2022-11-29T00:24:59.507Z,12.43
2022-11-29T00:27:58.632Z,17.65
2022-11-29T00:31:04.938Z,13.60
2022-11-29T00:34:13.552Z,11.38
2022-11-29T00:37:19.061Z,13.35
2022-11-29T00:40:25.587Z,15.20
2022-11-29T00:43:32.123Z,29.45
2022-11-29T00:46:37.921Z,10.53
2022-11-29T00:49:43.363Z,15.83
2022-11-29T00:52:49.120Z,18.10
2022-11-29T00:55:55.259Z,11.75
2022-11-29T00:58:54.547Z,11.33
2022-11-29T01:02:00.831Z,9.98
2022-11-29T01:05:06.458Z,10.95
2022-11-29T01:08:11.832Z,11.10
2022-11-29T01:11:30.787Z,11.30
2022-11-29T01:14:30.007Z,13.00
2022-11-29T01:17:35.716Z,10.53
2022-11-29T01:20:41.267Z,10.58
2022-11-29T01:23:46.414Z,12.65
2022-11-29T01:26:51.965Z,11.70
2022-11-29T01:29:57.805Z,11.33
2022-11-29T01:33:03.432Z,13.15
2022-11-29T01:36:09.977Z,11.73
2022-11-29T01:39:18.194Z,10.98
2022-11-29T01:42:27.813Z,12.50
2022-11-29T01:45:39.759Z,11.93
2022-11-29T01:48:46.088Z,17.77
2022-11-29T01:51:54.536Z,11.33
2022-11-29T01:55:02.381Z,10.60
2022-11-29T01:58:07.654Z,11.75
2022-11-29T02:01:15.689Z,10.68
2022-11-29T02:04:21.439Z,9.20
2022-11-29T02:07:26.993Z,11.70
2022-11-29T02:10:33.360Z,10.25
2022-11-29T02:13:56.065Z,11.22
2022-11-29T02:17:17.941Z,10.98
2022-11-29T02:20:56.342Z,11.48
2022-11-29T02:24:26.551Z,10.32
2022-11-29T02:27:58.041Z,8.33
2022-11-29T02:31:33.321Z,10.38
2022-11-29T02:35:11.406Z,9.25
2022-11-29T02:38:44.306Z,10.18
2022-11-29T02:42:18.800Z,8.38
2022-11-29T02:45:35.990Z,9.45
2022-11-29T02:49:05.552Z,9.03
2022-11-29T02:52:19.564Z,10.40
2022-11-29T02:55:41.243Z,8.93
2022-11-29T02:58:51.481Z,8.90
2022-11-29T03:05:57.281Z,10.13
2022-11-29T03:09:35.750Z,9.35
2022-11-29T03:12:54.239Z,9.58
2022-11-29T03:16:53.445Z,10.18
2022-11-29T03:20:21.369Z,10.43
2022-11-29T03:23:49.515Z,10.23
2022-11-29T03:27:00.042Z,9.45
2022-11-29T03:30:13.226Z,9.85
2022-11-29T03:33:44.802Z,11.83
2022-11-29T03:37:12.184Z,10.58
2022-11-29T03:40:31.445Z,9.65
2022-11-29T03:43:48.805Z,12.58
2022-11-29T03:46:58.520Z,11.85
2022-11-29T03:53:51.449Z,11.40
2022-11-29T03:56:57.181Z,10.80
2022-11-29T04:00:21.000Z,10.88
2022-11-29T04:03:59.443Z,10.85
2022-11-29T04:07:54.734Z,11.38
2022-11-29T04:11:36.661Z,9.90
2022-11-29T04:15:29.939Z,10.13
2022-11-29T04:18:58.940Z,9.88
2022-11-29T04:22:27.632Z,11.20
2022-11-29T04:25:51.671Z,9.20
2022-11-29T04:29:17.486Z,11.55
2022-11-29T04:32:46.956Z,11.08
2022-11-29T04:36:13.318Z,10.28
2022-11-29T04:39:33.008Z,10.82
2022-11-29T04:42:58.106Z,10.53
2022-11-29T04:46:56.058Z,11.35
2022-11-29T04:50:41.732Z,10.35
2022-11-29T04:54:10.849Z,10.63
2022-11-29T04:57:54.988Z,8.70
2022-11-29T05:01:21.600Z,10.10
2022-11-29T05:04:53.456Z,9.23
2022-11-29T05:08:05.200Z,9.25
2022-11-29T05:11:43.029Z,8.98
2022-11-29T05:15:04.779Z,10.03
2022-11-29T05:18:43.476Z,10.23
2022-11-29T05:22:32.639Z,9.00
2022-11-29T05:25:51.031Z,10.88
2022-11-29T05:29:12.533Z,10.23
2022-11-29T05:32:27.887Z,9.50
2022-11-29T05:36:03.738Z,10.10
2022-11-29T05:39:29.365Z,10.45
2022-11-29T05:43:16.690Z,9.85
2022-11-29T05:46:51.210Z,10.72
2022-11-29T05:50:09.799Z,9.70
2022-11-29T05:53:36.829Z,11.88
2022-11-29T05:56:52.927Z,10.30
2022-11-29T05:59:59.411Z,11.63
2022-11-29T06:03:18.159Z,9.28
2022-11-29T06:06:50.045Z,10.45
2022-11-29T06:10:03.562Z,10.75
2022-11-29T06:13:44.772Z,10.63
2022-11-29T06:17:43.085Z,10.58
2022-11-29T06:21:27.044Z,10.70
2022-11-29T06:25:03.151Z,11.88
2022-11-29T06:28:40.558Z,11.05
2022-11-29T06:31:58.364Z,9.80
2022-11-29T06:35:12.146Z,10.55
2022-11-29T06:38:33.416Z,11.03
2022-11-29T06:41:39.242Z,10.15
2022-11-29T06:44:45.157Z,10.40
2022-11-29T06:48:19.679Z,10.08
2022-11-29T06:51:48.280Z,10.00
2022-11-29T06:55:16.314Z,10.10
2022-11-29T06:58:39.697Z,12.00
2022-11-29T07:02:02.075Z,10.98
2022-11-29T07:05:28.693Z,9.68
2022-11-29T07:08:35.625Z,11.85
2022-11-29T07:11:41.825Z,11.10
2022-11-29T07:14:49.001Z,11.57
2022-11-29T07:18:27.298Z,11.85
2022-11-29T07:21:37.750Z,10.68
2022-11-29T07:24:48.584Z,9.95
2022-11-29T07:28:24.794Z,11.12
2022-11-29T07:31:41.515Z,8.38
2022-11-29T07:35:22.877Z,9.30
2022-11-29T07:38:41.397Z,8.43
2022-11-29T07:42:01.291Z,9.13
2022-11-29T07:45:20.055Z,8.78
2022-11-29T07:48:27.750Z,10.10
2022-11-29T07:51:33.011Z,9.65
2022-11-29T07:54:39.673Z,8.23
2022-11-29T07:57:44.983Z,8.70
2022-11-29T08:00:50.142Z,9.38
2022-11-29T08:03:57.282Z,7.60
2022-11-29T08:07:04.241Z,8.78
2022-11-29T08:10:10.903Z,8.03
2022-11-29T08:13:17.624Z,8.03
2022-11-29T08:16:22.857Z,7.67
2022-11-29T08:19:28.861Z,8.30
2022-11-29T08:22:33.730Z,7.83
2022-11-29T08:25:40.743Z,7.92
2022-11-29T08:28:47.264Z,7.50
2022-11-29T08:31:52.952Z,6.28
2022-11-29T08:34:59.325Z,9.18
2022-11-29T08:38:05.148Z,7.08
2022-11-29T08:41:18.054Z,6.25
2022-11-29T08:44:24.000Z,6.25
2022-11-29T08:47:44.892Z,5.55
2022-11-29T08:50:50.812Z,5.20
2022-11-29T08:53:58.390Z,5.45
2022-11-29T08:57:37.957Z,5.03
2022-11-29T09:00:11.449Z,4.70
2022-11-29T09:03:36.015Z,4.80
2022-11-29T09:06:45.389Z,5.05
2022-11-29T09:09:50.891Z,5.45
2022-11-29T09:12:57.292Z,4.85
2022-11-29T09:16:02.917Z,4.70
2022-11-29T09:19:07.713Z,4.62
2022-11-29T09:22:13.390Z,5.30
2022-11-29T09:25:17.626Z,4.55
2022-11-29T09:28:23.342Z,4.97
2022-11-29T09:31:30.533Z,4.47
2022-11-29T09:34:36.021Z,11.05
2022-11-29T09:37:43.732Z,5.28
2022-11-29T09:41:08.277Z,5.47
2022-11-29T09:44:57.359Z,4.62
2022-11-29T09:48:35.121Z,4.75
2022-11-29T09:52:05.639Z,4.95
2022-11-29T09:55:36.363Z,3.40
2022-11-29T09:58:56.455Z,4.12
2022-11-29T10:02:32.892Z,4.67
2022-11-29T10:05:54.517Z,6.12
2022-11-29T10:09:19.132Z,4.95
2022-11-29T10:12:37.941Z,5.03
2022-11-29T10:15:50.760Z,5.10
2022-11-29T10:19:23.090Z,4.83
2022-11-29T10:22:41.457Z,5.17
2022-11-29T10:25:55.885Z,6.15
2022-11-29T10:29:03.679Z,5.33
2022-11-29T10:32:08.802Z,4.53
2022-11-29T10:35:10.231Z,5.17
2022-11-29T10:38:30.885Z,4.87
2022-11-29T10:41:32.225Z,5.58
2022-11-29T10:44:38.202Z,4.87
2022-11-29T10:47:43.583Z,5.03
2022-11-29T10:50:50.734Z,4.47
2022-11-29T10:53:56.281Z,4.03
2022-11-29T10:57:04.844Z,4.47
2022-11-29T11:00:22.770Z,4.12
2022-11-29T11:03:40.111Z,4.67
2022-11-29T11:07:04.575Z,4.92
2022-11-29T11:10:10.663Z,4.50
2022-11-29T11:13:34.549Z,4.08
2022-11-29T11:16:37.449Z,4.58
2022-11-29T11:19:42.098Z,4.95
2022-11-29T11:22:34.857Z,4.30
2022-11-29T11:25:43.751Z,4.00
2022-11-29T11:28:50.324Z,4.50
2022-11-29T11:31:53.223Z,4.65
2022-11-29T11:35:07.144Z,4.55
2022-11-29T11:38:12.418Z,4.85
2022-11-29T11:42:02.982Z,4.80
2022-11-29T11:45:08.498Z,4.37
2022-11-29T11:48:27.887Z,4.15
2022-11-29T11:51:39.060Z,5.03
2022-11-29T11:54:45.604Z,4.78
2022-11-29T11:57:51.223Z,4.75
2022-11-29T12:01:16.988Z,5.53
2022-11-29T12:04:35.274Z,5.58
2022-11-29T12:08:09.381Z,5.45
2022-11-29T12:11:11.931Z,4.97
2022-11-29T12:14:17.224Z,5.35
2022-11-29T12:17:35.922Z,4.83
2022-11-29T12:21:01.012Z,4.97
2022-11-29T12:24:23.912Z,5.75
2022-11-29T12:27:29.805Z,4.78
2022-11-29T12:30:35.709Z,5.42
2022-11-29T12:33:48.238Z,4.78
2022-11-29T12:37:25.370Z,5.22
2022-11-29T12:41:15.760Z,4.97
2022-11-29T12:44:42.889Z,5.72
2022-11-29T12:48:24.484Z,4.80
2022-11-29T12:51:41.300Z,5.65
2022-11-29T12:55:10.313Z,5.50
2022-11-29T12:59:01.578Z,5.08
2022-11-29T13:02:51.127Z,5.03
2022-11-29T13:06:19.931Z,4.75
2022-11-29T13:09:46.846Z,5.37
2022-11-29T13:13:16.498Z,5.10
2022-11-29T13:17:00.481Z,4.83
2022-11-29T13:20:16.483Z,5.45
2022-11-29T13:24:11.930Z,3.67
2022-11-29T13:27:04.852Z,4.72
2022-11-29T13:30:11.579Z,4.58
2022-11-29T13:33:27.217Z,5.25
2022-11-29T13:36:42.969Z,4.03
2022-11-29T13:40:18.028Z,3.77
2022-11-29T13:43:39.545Z,4.55
2022-11-29T13:46:40.663Z,4.42
2022-11-29T13:50:13.939Z,4.37
2022-11-29T13:53:34.088Z,5.70
2022-11-29T13:56:54.518Z,6.10
2022-11-29T13:59:59.089Z,4.53
2022-11-29T14:03:03.639Z,5.80
2022-11-29T14:06:22.358Z,4.85
2022-11-29T14:09:43.429Z,5.22
2022-11-29T14:12:56.032Z,5.78
2022-11-29T14:16:01.956Z,5.65
2022-11-29T14:19:32.830Z,6.25
2022-11-29T14:22:34.641Z,5.50
2022-11-29T14:25:51.472Z,5.40
2022-11-29T14:28:46.878Z,5.53
2022-11-29T14:32:06.658Z,5.95
2022-11-29T14:35:44.127Z,5.30
2022-11-29T14:39:14.756Z,5.42
2022-11-29T14:42:34.234Z,5.60
2022-11-29T14:45:43.913Z,5.83
2022-11-29T14:48:51.183Z,5.75
2022-11-29T14:51:57.368Z,5.30
2022-11-29T14:55:14.038Z,6.10
2022-11-29T14:58:33.142Z,5.70
2022-11-29T15:01:37.828Z,6.80
2022-11-29T15:04:42.785Z,6.75
2022-11-29T15:07:48.435Z,6.03
2022-11-29T15:11:03.036Z,6.10
2022-11-29T15:14:21.011Z,5.50
2022-11-29T15:17:58.263Z,5.65
2022-11-29T15:21:30.140Z,6.12
2022-11-29T15:24:35.410Z,6.22
2022-11-29T15:27:41.420Z,6.58
2022-11-29T15:30:54.457Z,5.55
2022-11-29T15:33:54.283Z,5.90
2022-11-29T15:36:40.334Z,5.58
2022-11-29T15:39:41.925Z,6.30
2022-11-29T15:42:34.572Z,6.47
2022-11-29T15:45:46.491Z,6.12
2022-11-29T15:48:53.272Z,7.33
2022-11-29T15:51:59.991Z,7.42
2022-11-29T15:55:07.698Z,6.35
2022-11-29T15:58:12.601Z,7.20
2022-11-29T16:01:18.573Z,5.75
2022-11-29T16:04:29.021Z,5.53
2022-11-29T16:07:36.845Z,6.25
2022-11-29T16:10:53.674Z,5.40
2022-11-29T16:14:18.994Z,5.47
2022-11-29T16:17:24.247Z,5.83
2022-11-29T16:20:37.330Z,5.42
2022-11-29T16:23:52.504Z,5.50
2022-11-29T16:26:59.342Z,5.85
2022-11-29T16:30:06.246Z,5.47
2022-11-29T16:33:13.993Z,6.03
2022-11-29T16:36:30.840Z,5.67
2022-11-29T16:39:38.362Z,6.10
2022-11-29T16:42:45.025Z,5.67
2022-11-29T16:45:56.582Z,6.08
2022-11-29T16:49:03.637Z,4.47
2022-11-29T16:52:10.542Z,8.15
2022-11-29T16:55:16.219Z,6.60
2022-11-29T16:58:24.259Z,5.58
2022-11-29T17:01:34.892Z,5.28
2022-11-29T17:04:40.289Z,6.78
2022-11-29T17:07:48.025Z,7.12
2022-11-29T17:10:53.902Z,7.67
2022-11-29T17:13:59.555Z,6.92
2022-11-29T17:17:05.576Z,6.80
2022-11-29T17:20:11.679Z,6.67
2022-11-29T17:23:17.259Z,11.35
2022-11-29T17:26:15.981Z,14.68
2022-11-29T17:29:22.261Z,7.92
2022-11-29T17:32:28.246Z,8.30
2022-11-29T17:35:33.790Z,13.35
2022-11-29T17:38:39.449Z,10.20
2022-11-29T17:41:45.329Z,10.30
2022-11-29T17:44:44.152Z,15.23
2022-11-29T17:47:50.185Z,12.93
2022-11-29T17:50:56.211Z,17.07
2022-11-29T17:54:02.296Z,11.18
2022-11-29T17:57:10.319Z,7.00
2022-11-29T18:00:17.466Z,7.72
2022-11-29T18:03:23.466Z,8.43
2022-11-29T18:06:36.026Z,9.73
2022-11-29T18:09:42.644Z,6.20
2022-11-29T18:12:50.388Z,7.55
2022-11-29T18:15:55.977Z,6.33
2022-11-29T18:19:02.447Z,9.85
2022-11-29T18:22:09.829Z,8.55
2022-11-29T18:25:37.690Z,5.87
2022-11-29T18:28:23.453Z,11.28
2022-11-29T18:31:32.428Z,11.38
2022-11-29T18:34:38.855Z,6.65
2022-11-29T18:38:13.324Z,6.30
2022-11-29T18:40:55.509Z,12.13
2022-11-29T18:44:00.538Z,12.05
2022-11-29T18:47:06.670Z,14.38
2022-11-29T18:50:11.510Z,7.05
2022-11-29T18:53:16.622Z,8.68
2022-11-29T18:56:30.528Z,6.53
2022-11-29T18:59:29.219Z,7.65
2022-11-29T19:02:25.849Z,9.88
2022-11-29T19:05:31.093Z,9.68
2022-11-29T19:08:36.821Z,9.03
2022-11-29T19:11:44.546Z,6.95
2022-11-29T19:14:50.935Z,6.15
2022-11-29T19:17:56.932Z,5.50
2022-11-29T19:21:02.607Z,5.87
2022-11-29T19:24:16.052Z,8.35
2022-11-29T19:27:23.051Z,7.85
2022-11-29T19:30:30.677Z,6.37
2022-11-29T19:33:35.902Z,6.12
2022-11-29T19:36:47.787Z,7.35
2022-11-29T19:39:54.675Z,4.67
2022-11-29T19:43:04.418Z,6.67
2022-11-29T19:46:09.888Z,5.17
2022-11-29T19:49:16.852Z,6.37
2022-11-29T19:52:22.287Z,7.72
2022-11-29T19:55:28.452Z,7.03
2022-11-29T19:58:33.521Z,7.67
2022-11-29T20:01:43.267Z,7.55
2022-11-29T20:04:50.096Z,5.30
2022-11-29T20:07:54.854Z,7.20
2022-11-29T20:11:01.191Z,5.60
2022-11-29T20:14:15.981Z,5.03
2022-11-29T20:17:22.304Z,9.53
2022-11-29T20:20:28.817Z,7.97
2022-11-29T20:23:34.663Z,4.58
2022-11-29T20:26:40.166Z,7.08
2022-11-29T20:29:46.431Z,6.00
2022-11-29T20:32:52.704Z,7.42
2022-11-29T20:35:59.269Z,4.60
2022-11-29T20:39:29.163Z,7.03
2022-11-29T20:43:14.209Z,6.67
2022-11-29T20:46:14.946Z,7.60
2022-11-29T20:49:10.952Z,7.75
2022-11-29T20:52:20.996Z,10.35
2022-11-29T20:55:27.040Z,7.42
2022-11-29T20:58:32.998Z,7.12
2022-11-29T21:01:37.540Z,5.37
2022-11-29T21:04:43.310Z,4.87
2022-11-29T21:07:49.010Z,9.00
2022-11-29T21:10:47.456Z,4.62
2022-11-29T21:13:54.558Z,4.20
2022-11-29T21:16:59.659Z,6.78
2022-11-29T21:20:05.338Z,5.83
2022-11-29T21:23:33.181Z,5.12
2022-11-29T21:26:46.515Z,5.35
2022-11-29T21:29:54.069Z,4.85
2022-11-29T21:33:01.754Z,4.78
2022-11-29T21:36:11.516Z,5.20
2022-11-29T21:39:18.468Z,4.85
2022-11-29T21:42:23.577Z,4.40
2022-11-29T21:45:28.463Z,5.95
2022-11-29T21:48:42.368Z,4.70
2022-11-29T21:51:48.413Z,4.30
2022-11-29T21:54:54.086Z,5.17
2022-11-29T21:58:00.624Z,5.65
2022-11-29T22:01:05.627Z,4.80
2022-11-29T22:04:11.596Z,4.72
2022-11-29T22:07:17.401Z,6.55
2022-11-29T22:10:23.864Z,5.87
2022-11-29T22:13:28.959Z,6.28
2022-11-29T22:16:35.465Z,4.53
2022-11-29T22:19:47.532Z,4.53
2022-11-29T22:22:58.680Z,5.47
2022-11-29T22:26:03.357Z,4.72
2022-11-29T22:29:09.323Z,4.78
2022-11-29T22:32:15.687Z,5.67
2022-11-29T22:35:21.369Z,4.58
2022-11-29T22:38:27.163Z,5.47
2022-11-29T22:41:32.980Z,4.95
2022-11-29T22:44:41.395Z,4.40
2022-11-29T22:47:47.281Z,5.10
2022-11-29T22:50:53.547Z,4.67
2022-11-29T22:54:07.166Z,5.53
2022-11-29T22:57:12.451Z,4.65
2022-11-29T23:00:18.362Z,5.47
2022-11-29T23:03:24.139Z,4.92
2022-11-29T23:06:34.636Z,4.65
2022-11-29T23:09:33.995Z,3.73
2022-11-29T23:12:21.037Z,6.53
2022-11-29T23:15:13.688Z,5.75
2022-11-29T23:18:07.523Z,4.60
2022-11-29T23:21:17.560Z,3.65
2022-11-29T23:24:23.631Z,4.17
2022-11-29T23:27:29.006Z,3.70
2022-11-29T23:30:34.334Z,5.55
2022-11-29T23:33:33.144Z,3.80
2022-11-29T23:36:39.442Z,3.80
2022-11-29T23:39:37.942Z,4.70
2022-11-29T23:42:31.062Z,5.28
2022-11-29T23:45:37.682Z,4.62
2022-11-29T23:48:43.328Z,8.15
2022-11-29T23:51:42.542Z,4.20
2022-11-29T23:54:48.840Z,4.53
2022-11-29T23:57:48.060Z,5.85
